createdAt,value
2017-11-21T00:01:08.849Z,8
2017-11-21T00:02:21.578Z,8
2017-11-21T00:03:33.890Z,8
2017-11-21T00:04:45.743Z,8
2017-11-21T00:05:58.024Z,8
2017-11-21T00:07:10.306Z,8
2017-11-21T00:08:23.047Z,8
2017-11-21T00:09:35.331Z,8
2017-11-21T00:10:48.031Z,8
2017-11-21T00:12:00.774Z,8
2017-11-21T00:13:13.075Z,8
2017-11-21T00:14:25.780Z,8
2017-11-21T00:15:38.480Z,8
2017-11-21T00:16:50.706Z,8
2017-11-21T00:18:03.409Z,8
2017-11-21T00:19:16.176Z,8
2017-11-21T00:20:28.504Z,8
2017-11-21T00:21:54.275Z,8
2017-11-21T00:23:27.939Z,8
2017-11-21T00:24:40.611Z,8
2017-11-21T00:25:53.329Z,8
2017-11-21T00:27:06.014Z,8
2017-11-21T00:28:18.760Z,8
2017-11-21T00:29:31.524Z,8
2017-11-21T00:30:44.225Z,8
2017-11-21T00:31:56.959Z,8
2017-11-21T00:33:28.920Z,8
2017-11-21T00:34:41.677Z,8
2017-11-21T00:35:54.390Z,8
2017-11-21T00:37:07.563Z,8
2017-11-21T00:38:20.287Z,8
2017-11-21T00:39:32.585Z,8
2017-11-21T00:40:44.442Z,8
2017-11-21T00:41:56.714Z,8
2017-11-21T00:43:09.409Z,8
2017-11-21T00:44:30.397Z,8
2017-11-21T00:45:42.636Z,8
2017-11-21T00:46:55.377Z,8
2017-11-21T00:48:08.103Z,8
2017-11-21T00:49:20.850Z,8
2017-11-21T00:50:32.722Z,8
2017-11-21T00:51:45.421Z,8
2017-11-21T00:52:58.142Z,8
2017-11-21T00:54:10.409Z,8
2017-11-21T00:55:23.089Z,8
2017-11-21T00:56:35.837Z,8
2017-11-21T00:57:48.529Z,8
2017-11-21T00:59:00.744Z,8
2017-11-21T01:00:13.431Z,8
2017-11-21T01:01:26.112Z,8
2017-11-21T01:02:38.395Z,8
2017-11-21T01:03:51.104Z,8
2017-11-21T01:05:04.505Z,8
2017-11-21T01:06:20.083Z,8
2017-11-21T01:07:32.335Z,8
2017-11-21T01:08:44.625Z,8
2017-11-21T01:09:57.340Z,8
2017-11-21T01:11:10.055Z,8
2017-11-21T01:12:22.390Z,8
2017-11-21T01:13:35.114Z,8
2017-11-21T01:14:47.378Z,8
2017-11-21T01:16:12.867Z,8
2017-11-21T01:17:37.317Z,8
2017-11-21T01:18:49.554Z,8
2017-11-21T01:20:02.263Z,8
2017-11-21T01:21:15.023Z,8
2017-11-21T01:22:27.747Z,8
2017-11-21T01:23:40.483Z,8
2017-11-21T01:24:53.209Z,8
2017-11-21T01:26:05.545Z,8
2017-11-21T01:27:29.024Z,8
2017-11-21T01:28:55.259Z,8
2017-11-21T01:30:07.579Z,8
2017-11-21T01:31:20.365Z,8
2017-11-21T01:32:32.691Z,8
2017-11-21T01:33:45.479Z,8
2017-11-21T01:34:58.255Z,8
2017-11-21T01:36:11.030Z,8
2017-11-21T01:37:23.355Z,8
2017-11-21T01:38:36.151Z,8
2017-11-21T01:39:48.938Z,8
2017-11-21T01:41:01.734Z,8
2017-11-21T01:42:14.508Z,8
2017-11-21T01:43:27.284Z,8
2017-11-21T01:44:40.085Z,8
2017-11-21T01:45:52.850Z,8
2017-11-21T01:47:05.628Z,8
2017-11-21T01:48:18.418Z,8
2017-11-21T01:49:51.721Z,8
2017-11-21T01:51:04.062Z,8
2017-11-21T01:52:16.845Z,8
2017-11-21T01:53:29.161Z,8
2017-11-21T01:54:41.911Z,8
2017-11-21T01:55:54.676Z,8
2017-11-21T01:57:06.993Z,8
2017-11-21T01:58:19.306Z,8
2017-11-21T01:59:44.600Z,8
2017-11-21T02:01:07.717Z,8
2017-11-21T02:02:20.401Z,8
2017-11-21T02:03:33.071Z,8
2017-11-21T02:04:45.753Z,8
2017-11-21T02:05:58.006Z,8
2017-11-21T02:07:09.777Z,8
2017-11-21T02:08:22.488Z,8
2017-11-21T02:09:34.744Z,8
2017-11-21T02:10:49.779Z,8
2017-11-21T02:12:07.675Z,8
2017-11-21T02:13:20.399Z,8
2017-11-21T02:14:33.077Z,8
2017-11-21T02:15:45.720Z,8
2017-11-21T02:16:58.457Z,8
2017-11-21T02:18:11.165Z,8
2017-11-21T02:19:23.365Z,8
2017-11-21T02:20:36.077Z,8
2017-11-21T02:21:48.807Z,8
2017-11-21T02:23:01.507Z,8
2017-11-21T02:24:14.226Z,8
2017-11-21T02:25:27.008Z,8
2017-11-21T02:26:39.694Z,8
2017-11-21T02:27:52.403Z,8
2017-11-21T02:29:05.166Z,8
2017-11-21T02:30:17.812Z,8
2017-11-21T02:31:30.635Z,8
2017-11-21T02:32:53.384Z,8
2017-11-21T02:34:05.650Z,8
2017-11-21T02:35:18.327Z,8
2017-11-21T02:36:31.054Z,8
2017-11-21T02:37:43.282Z,8
2017-11-21T02:38:55.567Z,8
2017-11-21T02:40:07.798Z,8
2017-11-21T02:41:20.033Z,8
2017-11-21T02:42:32.753Z,8
2017-11-21T02:43:45.454Z,8
2017-11-21T02:44:58.138Z,8
2017-11-21T02:46:09.986Z,8
2017-11-21T02:47:22.659Z,8
2017-11-21T02:48:34.937Z,8
2017-11-21T02:49:47.677Z,8
2017-11-21T02:50:59.477Z,8
2017-11-21T02:52:11.697Z,8
2017-11-21T02:53:31.081Z,8
2017-11-21T02:54:58.744Z,8
2017-11-21T02:56:11.398Z,8
2017-11-21T02:57:24.072Z,8
2017-11-21T02:58:36.720Z,8
2017-11-21T02:59:49.338Z,8
2017-11-21T03:01:01.525Z,8
2017-11-21T03:02:14.143Z,8
2017-11-21T03:03:26.811Z,8
2017-11-21T03:04:53.461Z,8
2017-11-21T03:06:06.123Z,8
2017-11-21T03:07:18.782Z,8
2017-11-21T03:08:31.051Z,8
2017-11-21T03:09:43.372Z,8
2017-11-21T03:10:56.127Z,8
2017-11-21T03:12:08.402Z,8
2017-11-21T03:13:21.125Z,8
2017-11-21T03:14:33.792Z,8
2017-11-21T03:15:50.577Z,8
2017-11-21T03:17:04.326Z,8
2017-11-21T03:18:17.064Z,8
2017-11-21T03:19:29.710Z,8
2017-11-21T03:20:41.897Z,8
2017-11-21T03:21:54.114Z,8
2017-11-21T03:23:06.381Z,8
2017-11-21T03:24:19.117Z,8
2017-11-21T03:25:31.867Z,8
2017-11-21T03:26:44.631Z,8
2017-11-21T03:27:57.378Z,8
2017-11-21T03:29:10.129Z,8
2017-11-21T03:30:22.543Z,8
2017-11-21T03:31:35.308Z,8
2017-11-21T03:32:48.055Z,8
2017-11-21T03:34:00.362Z,8
2017-11-21T03:35:13.124Z,8
2017-11-21T03:36:25.890Z,8
2017-11-21T03:37:46.886Z,8
2017-11-21T03:38:59.641Z,8
2017-11-21T03:40:11.930Z,8
2017-11-21T03:41:23.776Z,8
2017-11-21T03:42:36.526Z,8
2017-11-21T03:43:49.279Z,8
2017-11-21T03:45:02.053Z,8
2017-11-21T03:46:14.829Z,8
2017-11-21T03:47:27.583Z,8
2017-11-21T03:48:40.363Z,8
2017-11-21T03:49:53.136Z,8
2017-11-21T03:51:05.442Z,8
2017-11-21T03:52:18.221Z,8
2017-11-21T03:53:30.542Z,8
2017-11-21T03:54:43.318Z,8
2017-11-21T03:55:56.073Z,8
2017-11-21T03:57:08.889Z,8
2017-11-21T03:58:32.395Z,8
2017-11-21T03:59:47.508Z,8
2017-11-21T04:01:00.286Z,8
2017-11-21T04:02:12.172Z,8
2017-11-21T04:03:24.935Z,8
2017-11-21T04:04:37.713Z,8
2017-11-21T04:05:50.044Z,8
2017-11-21T04:07:02.842Z,8
2017-11-21T04:08:15.630Z,8
2017-11-21T04:09:52.671Z,8
2017-11-21T04:11:04.997Z,8
2017-11-21T04:12:17.772Z,8
2017-11-21T04:13:30.560Z,8
2017-11-21T04:14:43.333Z,8
2017-11-21T04:15:56.073Z,8
2017-11-21T04:17:08.782Z,8
2017-11-21T04:18:21.528Z,8
2017-11-21T04:19:34.195Z,8
2017-11-21T04:20:52.632Z,8
2017-11-21T04:22:04.570Z,8
2017-11-21T04:23:17.243Z,8
2017-11-21T04:24:29.941Z,8
2017-11-21T04:25:42.147Z,8
2017-11-21T04:26:54.875Z,8
2017-11-21T04:28:07.530Z,8
2017-11-21T04:29:20.193Z,8
2017-11-21T04:30:32.903Z,8
2017-11-21T04:31:45.576Z,8
2017-11-21T04:32:58.282Z,8
2017-11-21T04:34:10.999Z,8
2017-11-21T04:35:23.747Z,8
2017-11-21T04:36:36.444Z,8
2017-11-21T04:44:01.370Z,8
2017-11-21T04:45:14.018Z,8
2017-11-21T04:46:26.674Z,8
2017-11-21T04:47:38.905Z,8
2017-11-21T04:48:51.533Z,8
2017-11-21T04:50:04.158Z,8
2017-11-21T04:51:16.383Z,8
2017-11-21T04:52:29.061Z,8
2017-11-21T04:53:41.722Z,8
2017-11-21T04:54:54.396Z,8
2017-11-21T04:56:07.091Z,8
2017-11-21T04:57:19.776Z,8
2017-11-21T04:58:32.461Z,8
2017-11-21T04:59:45.187Z,8
2017-11-21T05:00:57.899Z,8
2017-11-21T05:02:09.236Z,8
2017-11-21T05:03:21.912Z,8
2017-11-21T05:04:34.601Z,8
2017-11-21T05:05:47.301Z,8
2017-11-21T05:06:59.988Z,8
2017-11-21T05:08:12.245Z,8
2017-11-21T05:09:24.419Z,8
2017-11-21T05:10:37.052Z,8
2017-11-21T05:11:49.672Z,8
2017-11-21T05:13:02.332Z,8
2017-11-21T05:14:14.555Z,8
2017-11-21T05:15:27.169Z,8
2017-11-21T05:16:39.796Z,8
2017-11-21T05:17:52.465Z,8
2017-11-21T05:19:05.102Z,8
2017-11-21T05:20:17.323Z,8
2017-11-21T05:21:30.017Z,8
2017-11-21T05:22:42.656Z,8
2017-11-21T05:23:54.822Z,8
2017-11-21T05:25:07.430Z,8
2017-11-21T05:26:20.115Z,8
2017-11-21T05:27:32.740Z,8
2017-11-21T05:28:45.432Z,8
2017-11-21T05:29:57.620Z,8
2017-11-21T05:31:10.205Z,8
2017-11-21T05:32:22.855Z,8
2017-11-21T05:33:35.464Z,8
2017-11-21T05:34:48.137Z,8
2017-11-21T05:35:59.891Z,8
2017-11-21T05:37:12.601Z,8
2017-11-21T05:38:25.281Z,8
2017-11-21T05:39:37.954Z,8
2017-11-21T05:40:50.579Z,8
2017-11-21T05:42:03.212Z,8
2017-11-21T05:43:15.445Z,8
2017-11-21T05:44:28.146Z,8
2017-11-21T05:45:40.857Z,8
2017-11-21T05:46:53.512Z,8
2017-11-21T05:48:06.160Z,8
2017-11-21T05:49:18.846Z,8
2017-11-21T05:50:31.522Z,8
2017-11-21T05:51:44.206Z,8
2017-11-21T05:52:56.863Z,8
2017-11-21T05:54:09.508Z,8
2017-11-21T05:55:22.212Z,8
2017-11-21T05:56:34.492Z,8
2017-11-21T05:57:47.115Z,8
2017-11-21T05:58:59.794Z,8
2017-11-21T06:00:12.033Z,8
2017-11-21T06:01:24.268Z,8
2017-11-21T06:02:36.992Z,8
2017-11-21T06:03:49.658Z,8
2017-11-21T06:05:02.305Z,8
2017-11-21T06:06:14.502Z,8
2017-11-21T06:07:27.110Z,8
2017-11-21T06:08:39.736Z,8
2017-11-21T06:09:52.370Z,8
2017-11-21T06:11:04.570Z,8
2017-11-21T06:12:17.198Z,8
2017-11-21T06:13:29.814Z,8
2017-11-21T06:14:41.533Z,8
2017-11-21T06:15:54.201Z,8
2017-11-21T06:17:06.852Z,8
2017-11-21T06:18:19.531Z,8
2017-11-21T06:19:32.218Z,8
2017-11-21T06:20:44.914Z,8
2017-11-21T06:21:57.727Z,8
2017-11-21T06:23:10.384Z,8
2017-11-21T06:24:23.068Z,8
2017-11-21T06:25:35.722Z,8
2017-11-21T06:26:48.384Z,8
2017-11-21T06:28:00.608Z,8
2017-11-21T06:29:13.277Z,8
2017-11-21T06:30:25.910Z,8
2017-11-21T06:31:38.122Z,8
2017-11-21T06:32:50.331Z,8
2017-11-21T06:34:03.032Z,8
2017-11-21T06:35:15.752Z,8
2017-11-21T06:36:28.461Z,8
2017-11-21T06:37:40.702Z,8
2017-11-21T06:38:53.408Z,8
2017-11-21T06:40:05.664Z,8
2017-11-21T06:41:18.379Z,8
2017-11-21T06:42:30.197Z,8
2017-11-21T06:43:42.880Z,8
2017-11-21T06:44:55.542Z,8
2017-11-21T06:46:08.220Z,8
2017-11-21T06:47:20.059Z,8
2017-11-21T06:48:32.804Z,8
2017-11-21T06:49:45.085Z,8
2017-11-21T06:50:57.814Z,8
2017-11-21T06:52:10.551Z,8
2017-11-21T06:53:22.782Z,8
2017-11-21T06:54:35.046Z,8
2017-11-21T06:55:47.775Z,8
2017-11-21T06:57:00.494Z,8
2017-11-21T06:58:12.283Z,8
2017-11-21T06:59:25.004Z,8
2017-11-21T07:00:37.735Z,8
2017-11-21T07:01:50.486Z,8
2017-11-21T07:03:02.793Z,8
2017-11-21T07:04:15.067Z,8
2017-11-21T07:05:27.789Z,8
2017-11-21T07:06:40.473Z,8
2017-11-21T07:07:53.173Z,8
2017-11-21T07:09:05.427Z,8
2017-11-21T07:10:18.156Z,8
2017-11-21T07:11:29.977Z,8
2017-11-21T07:12:42.715Z,8
2017-11-21T07:13:54.972Z,8
2017-11-21T07:15:07.687Z,8
2017-11-21T07:16:20.067Z,8
2017-11-21T07:17:32.355Z,8
2017-11-21T07:18:44.167Z,8
2017-11-21T07:19:56.423Z,8
2017-11-21T07:21:08.269Z,8
2017-11-21T07:22:21.123Z,8
2017-11-21T07:23:33.855Z,8
2017-11-21T07:24:46.594Z,8
2017-11-21T07:25:58.911Z,8
2017-11-21T07:27:11.663Z,8
2017-11-21T07:28:24.457Z,8
2017-11-21T07:29:37.217Z,8
2017-11-21T07:30:50.000Z,8
2017-11-21T07:32:02.315Z,8
2017-11-21T07:33:15.108Z,8
2017-11-21T07:34:27.903Z,8
2017-11-21T07:35:40.683Z,8
2017-11-21T07:36:53.034Z,8
2017-11-21T07:38:05.822Z,8
2017-11-21T07:39:18.578Z,8
2017-11-21T07:40:31.358Z,8
2017-11-21T07:41:43.577Z,8
2017-11-21T07:42:55.880Z,8
2017-11-21T07:44:08.592Z,8
2017-11-21T07:45:21.266Z,8
2017-11-21T07:46:33.977Z,8
2017-11-21T07:47:46.648Z,8
2017-11-21T07:48:59.412Z,8
2017-11-21T07:50:11.221Z,8
2017-11-21T07:51:23.991Z,8
2017-11-21T07:52:36.227Z,8
2017-11-21T07:53:48.885Z,8
2017-11-21T07:55:01.651Z,8
2017-11-21T07:56:13.915Z,4
2017-11-21T07:57:26.110Z,4
2017-11-21T07:58:38.792Z,4
2017-11-21T07:59:51.492Z,4
2017-11-21T08:01:04.208Z,4
2017-11-21T08:02:16.935Z,4
2017-11-21T08:03:29.628Z,8
2017-11-21T08:04:42.387Z,8
2017-11-21T08:05:55.145Z,8
2017-11-21T08:07:07.844Z,8
2017-11-21T08:08:20.579Z,8
2017-11-21T08:09:33.241Z,8
2017-11-21T08:10:45.467Z,8
2017-11-21T08:11:58.140Z,8
2017-11-21T08:13:10.816Z,8
2017-11-21T08:14:23.542Z,8
2017-11-21T08:15:36.239Z,8
2017-11-21T08:16:48.909Z,12
2017-11-21T08:18:01.598Z,12
2017-11-21T08:19:13.824Z,12
2017-11-21T08:20:26.585Z,12
2017-11-21T08:21:39.276Z,12
2017-11-21T08:22:52.021Z,12
2017-11-21T08:24:04.712Z,12
2017-11-21T08:25:16.994Z,8
2017-11-21T08:26:29.761Z,12
2017-11-21T08:27:42.119Z,12
2017-11-21T08:28:54.405Z,16
2017-11-21T08:30:07.130Z,12
2017-11-21T08:31:19.323Z,16
2017-11-21T08:32:32.012Z,16
2017-11-21T08:33:44.714Z,16
2017-11-21T08:34:57.411Z,20
2017-11-21T08:36:10.090Z,28
2017-11-21T08:37:21.916Z,28
2017-11-21T08:38:34.648Z,32
2017-11-21T08:39:46.872Z,32
2017-11-21T08:40:59.559Z,36
2017-11-21T08:42:11.924Z,40
2017-11-21T08:43:24.628Z,44
2017-11-21T08:44:37.325Z,52
2017-11-21T08:45:50.000Z,52
2017-11-21T08:47:02.222Z,48
2017-11-21T08:48:14.918Z,48
2017-11-21T08:49:27.644Z,48
2017-11-21T08:50:40.353Z,44
2017-11-21T08:51:53.038Z,48
2017-11-21T08:53:05.693Z,60
2017-11-21T08:54:17.892Z,68
2017-11-21T08:55:30.560Z,80
2017-11-21T08:56:43.273Z,84
2017-11-21T08:57:55.878Z,84
2017-11-21T08:59:08.093Z,76
2017-11-21T09:00:19.879Z,76
2017-11-21T09:01:32.607Z,72
2017-11-21T09:02:44.879Z,76
2017-11-21T09:03:57.616Z,84
2017-11-21T09:05:10.251Z,96
2017-11-21T09:06:22.919Z,100
2017-11-21T09:07:35.147Z,112
2017-11-21T09:08:47.384Z,128
2017-11-21T09:09:59.621Z,136
2017-11-21T09:11:12.317Z,148
2017-11-21T09:12:24.977Z,156
2017-11-21T09:13:37.681Z,156
2017-11-21T09:14:50.360Z,160
2017-11-21T09:16:03.039Z,156
2017-11-21T09:17:15.789Z,160
2017-11-21T09:18:28.457Z,184
2017-11-21T09:19:40.708Z,192
2017-11-21T09:20:53.408Z,192
2017-11-21T09:22:06.117Z,204
2017-11-21T09:23:17.927Z,228
2017-11-21T09:24:30.571Z,260
2017-11-21T09:25:43.250Z,280
2017-11-21T09:26:55.506Z,280
2017-11-21T09:28:08.228Z,280
2017-11-21T09:29:20.976Z,256
2017-11-21T09:30:33.683Z,300
2017-11-21T09:31:46.412Z,288
2017-11-21T09:32:59.112Z,276
2017-11-21T09:34:11.815Z,280
2017-11-21T09:35:24.498Z,264
2017-11-21T09:36:37.201Z,272
2017-11-21T09:37:49.501Z,264
2017-11-21T09:39:02.173Z,252
2017-11-21T09:40:14.401Z,256
2017-11-21T09:41:26.672Z,284
2017-11-21T09:42:39.327Z,296
2017-11-21T09:43:52.107Z,292
2017-11-21T09:45:04.370Z,264
2017-11-21T09:46:16.975Z,236
2017-11-21T09:47:29.195Z,212
2017-11-21T09:48:41.876Z,200
2017-11-21T09:49:54.099Z,200
2017-11-21T09:51:06.359Z,208
2017-11-21T09:52:19.110Z,228
2017-11-21T09:53:31.424Z,256
2017-11-21T09:54:44.190Z,300
2017-11-21T09:55:56.868Z,340
2017-11-21T09:57:09.549Z,380
2017-11-21T09:58:22.233Z,416
2017-11-21T09:59:35.000Z,432
2017-11-21T10:00:47.718Z,460
2017-11-21T10:02:00.470Z,480
2017-11-21T10:03:13.226Z,488
2017-11-21T10:04:25.497Z,500
2017-11-21T10:05:37.810Z,540
2017-11-21T10:06:50.567Z,572
2017-11-21T10:08:03.285Z,584
2017-11-21T10:09:15.979Z,580
2017-11-21T10:10:28.234Z,556
2017-11-21T10:11:41.003Z,592
2017-11-21T10:12:53.760Z,580
2017-11-21T10:14:06.498Z,596
2017-11-21T10:15:19.251Z,660
2017-11-21T10:16:31.540Z,820
2017-11-21T10:17:44.276Z,888
2017-11-21T10:18:56.938Z,1040
2017-11-21T10:20:09.600Z,932
2017-11-21T10:21:21.826Z,892
2017-11-21T10:22:34.069Z,976
2017-11-21T10:23:46.797Z,880
2017-11-21T10:24:59.508Z,656
2017-11-21T10:26:12.257Z,684
2017-11-21T10:27:24.979Z,748
2017-11-21T10:28:37.658Z,824
2017-11-21T10:29:50.413Z,876
2017-11-21T10:31:03.142Z,876
2017-11-21T10:32:15.855Z,872
2017-11-21T10:33:28.593Z,856
2017-11-21T10:34:40.881Z,852
2017-11-21T10:35:53.564Z,852
2017-11-21T10:37:06.290Z,840
2017-11-21T10:38:19.027Z,824
2017-11-21T10:39:45.788Z,860
2017-11-21T10:40:58.454Z,744
2017-11-21T10:42:11.142Z,692
2017-11-21T10:43:23.447Z,684
2017-11-21T10:44:36.180Z,676
2017-11-21T10:45:48.848Z,656
2017-11-21T10:47:01.534Z,740
2017-11-21T10:48:14.225Z,828
2017-11-21T10:49:26.955Z,916
2017-11-21T10:50:39.230Z,964
2017-11-21T10:51:52.013Z,948
2017-11-21T10:53:04.264Z,932
2017-11-21T10:54:16.523Z,900
2017-11-21T10:55:29.229Z,872
2017-11-21T10:56:41.486Z,824
2017-11-21T10:57:53.321Z,820
2017-11-21T10:59:06.042Z,776
2017-11-21T11:00:38.544Z,688
2017-11-21T11:01:51.250Z,676
2017-11-21T11:03:03.950Z,716
2017-11-21T11:04:16.725Z,764
2017-11-21T11:05:29.501Z,724
2017-11-21T11:06:42.248Z,852
2017-11-21T11:07:54.494Z,1084
2017-11-21T11:09:06.345Z,1100
2017-11-21T11:10:19.096Z,968
2017-11-21T11:11:31.371Z,788
2017-11-21T11:12:44.124Z,860
2017-11-21T11:13:56.408Z,1036
2017-11-21T11:15:09.195Z,1060
2017-11-21T11:16:22.020Z,1056
2017-11-21T11:17:34.345Z,1152
2017-11-21T11:18:47.058Z,1060
2017-11-21T11:19:59.781Z,1288
2017-11-21T11:21:12.073Z,1392
2017-11-21T11:22:53.445Z,1356
2017-11-21T11:24:06.198Z,1536
2017-11-21T11:25:18.468Z,1528
2017-11-21T11:26:30.709Z,1508
2017-11-21T11:27:43.442Z,1516
2017-11-21T11:28:55.725Z,1184
2017-11-21T11:30:08.383Z,932
2017-11-21T11:31:21.069Z,888
2017-11-21T11:32:53.866Z,912
2017-11-21T11:34:06.610Z,928
2017-11-21T11:35:19.325Z,936
2017-11-21T11:36:31.590Z,1020
2017-11-21T11:37:44.298Z,956
2017-11-21T11:38:56.522Z,1020
2017-11-21T11:40:08.758Z,1380
2017-11-21T11:41:21.415Z,1116
2017-11-21T11:42:34.164Z,1096
2017-11-21T11:43:48.880Z,1288
2017-11-21T11:45:11.739Z,1492
2017-11-21T11:46:24.053Z,1128
2017-11-21T11:47:36.377Z,1112
2017-11-21T11:48:48.690Z,1148
2017-11-21T11:50:01.404Z,1432
2017-11-21T11:51:14.139Z,1388
2017-11-21T11:52:26.425Z,1380
2017-11-21T11:53:39.120Z,1488
2017-11-21T11:54:51.890Z,1420
2017-11-21T11:56:04.656Z,1472
2017-11-21T11:57:16.977Z,1492
2017-11-21T11:58:29.725Z,1368
2017-11-21T11:59:42.484Z,1328
2017-11-21T12:00:54.800Z,1296
2017-11-21T12:02:07.588Z,1268
2017-11-21T12:03:19.880Z,1260
2017-11-21T12:04:32.586Z,1256
2017-11-21T12:06:26.986Z,1284
2017-11-21T12:07:39.629Z,1316
2017-11-21T12:08:52.379Z,1464
2017-11-21T12:10:04.696Z,1344
2017-11-21T12:11:17.004Z,1300
2017-11-21T12:12:29.268Z,1240
2017-11-21T12:13:41.983Z,1188
2017-11-21T12:14:54.289Z,1164
2017-11-21T12:16:07.668Z,1164
2017-11-21T12:17:19.668Z,1220
2017-11-21T12:18:32.366Z,1224
2017-11-21T12:19:45.086Z,1228
2017-11-21T12:20:57.788Z,1252
2017-11-21T12:22:10.521Z,1312
2017-11-21T12:23:23.228Z,1364
2017-11-21T12:24:35.944Z,1496
2017-11-21T12:25:48.237Z,1384
2017-11-21T12:27:09.629Z,1320
2017-11-21T12:28:27.177Z,1276
2017-11-21T12:29:39.913Z,1212
2017-11-21T12:30:52.643Z,1200
2017-11-21T12:32:05.336Z,1220
2017-11-21T12:33:17.594Z,1244
2017-11-21T12:34:30.328Z,1280
2017-11-21T12:35:43.047Z,1336
2017-11-21T12:36:54.849Z,1340
2017-11-21T12:38:07.539Z,1456
2017-11-21T12:39:20.248Z,1656
2017-11-21T12:40:32.995Z,1456
2017-11-21T12:41:45.736Z,1360
2017-11-21T12:42:58.516Z,1428
2017-11-21T12:44:11.268Z,1620
2017-11-21T12:45:23.977Z,1760
2017-11-21T12:46:36.692Z,1744
2017-11-21T12:47:48.033Z,2468
2017-11-21T12:49:04.536Z,1624
2017-11-21T12:50:17.268Z,1648
2017-11-21T12:51:30.016Z,1472
2017-11-21T12:52:42.756Z,1708
2017-11-21T12:53:55.465Z,1344
2017-11-21T12:55:07.744Z,1792
2017-11-21T12:56:20.468Z,1504
2017-11-21T12:57:32.764Z,2396
2017-11-21T12:58:45.464Z,1424
2017-11-21T12:59:58.187Z,1496
2017-11-21T13:01:10.443Z,1412
2017-11-21T13:02:23.113Z,1352
2017-11-21T13:03:35.796Z,1292
2017-11-21T13:04:48.016Z,1264
2017-11-21T13:06:00.767Z,1292
2017-11-21T13:07:12.633Z,1332
2017-11-21T13:08:25.397Z,1644
2017-11-21T13:10:07.796Z,1576
2017-11-21T13:11:26.031Z,1600
2017-11-21T13:12:38.341Z,2552
2017-11-21T13:13:50.207Z,1568
2017-11-21T13:15:02.496Z,1576
2017-11-21T13:16:15.259Z,2124
2017-11-21T13:17:28.019Z,2480
2017-11-21T13:18:40.790Z,1668
2017-11-21T13:19:53.562Z,1596
2017-11-21T13:21:13.772Z,2572
2017-11-21T13:22:26.581Z,1952
2017-11-21T13:23:39.354Z,2072
2017-11-21T13:24:52.094Z,1748
2017-11-21T13:26:04.411Z,1684
2017-11-21T13:27:16.743Z,2748
2017-11-21T13:28:29.761Z,2044
2017-11-21T13:29:42.546Z,2876
2017-11-21T13:30:55.354Z,2128
2017-11-21T13:32:07.669Z,2004
2017-11-21T13:33:20.432Z,1720
2017-11-21T13:34:33.203Z,1856
2017-11-21T13:35:45.998Z,1652
2017-11-21T13:36:58.797Z,2616
2017-11-21T13:38:11.126Z,2140
2017-11-21T13:39:24.011Z,1664
2017-11-21T13:40:36.361Z,1564
2017-11-21T13:41:49.111Z,1532
2017-11-21T13:43:01.890Z,1524
2017-11-21T13:44:14.665Z,1480
2017-11-21T13:45:27.428Z,1440
2017-11-21T13:46:39.761Z,1396
2017-11-21T13:47:52.532Z,1488
2017-11-21T13:49:05.305Z,1752
2017-11-21T13:50:18.057Z,1688
2017-11-21T13:51:30.823Z,1644
2017-11-21T13:52:43.135Z,1836
2017-11-21T13:54:12.448Z,3324
2017-11-21T13:55:25.228Z,3492
2017-11-21T13:56:38.019Z,2972
2017-11-21T13:57:50.803Z,3352
2017-11-21T13:59:03.117Z,2452
2017-11-21T14:00:15.911Z,2344
2017-11-21T14:01:28.620Z,1964
2017-11-21T14:02:40.823Z,1228
2017-11-21T14:03:53.469Z,1220
2017-11-21T14:05:05.669Z,1228
2017-11-21T14:06:18.332Z,2928
2017-11-21T14:07:31.087Z,1708
2017-11-21T14:08:43.831Z,1092
2017-11-21T14:09:56.604Z,2592
2017-11-21T14:11:08.890Z,1852
2017-11-21T14:12:21.633Z,3008
2017-11-21T14:13:33.853Z,2648
2017-11-21T14:14:45.730Z,3012
2017-11-21T14:15:58.832Z,1180
2017-11-21T14:17:11.124Z,3176
2017-11-21T14:18:23.820Z,1856
2017-11-21T14:19:36.553Z,1520
2017-11-21T14:20:49.326Z,2852
2017-11-21T14:22:01.971Z,2112
2017-11-21T14:23:14.686Z,1540
2017-11-21T14:24:26.470Z,1296
2017-11-21T14:25:38.250Z,3292
2017-11-21T14:26:50.944Z,2948
2017-11-21T14:28:03.164Z,2564
2017-11-21T14:29:15.883Z,2308
2017-11-21T14:30:28.147Z,1464
2017-11-21T14:31:40.872Z,1276
2017-11-21T14:32:53.126Z,1788
2017-11-21T14:34:05.855Z,3368
2017-11-21T14:35:18.550Z,3552
2017-11-21T14:36:30.765Z,3072
2017-11-21T14:37:43.462Z,2872
2017-11-21T14:38:55.693Z,2580
2017-11-21T14:40:08.398Z,1792
2017-11-21T14:41:21.067Z,1488
2017-11-21T14:42:33.728Z,2136
2017-11-21T14:43:46.431Z,3204
2017-11-21T14:44:59.086Z,1532
2017-11-21T14:46:11.807Z,1644
2017-11-21T14:47:24.451Z,1728
2017-11-21T14:48:37.110Z,1704
2017-11-21T14:49:49.788Z,1548
2017-11-21T14:51:02.421Z,2120
2017-11-21T14:52:14.683Z,1868
2017-11-21T14:53:27.329Z,2332
2017-11-21T14:54:40.035Z,2004
2017-11-21T14:55:52.734Z,1132
2017-11-21T14:57:04.934Z,1056
2017-11-21T14:58:17.577Z,1072
2017-11-21T14:59:30.245Z,1132
2017-11-21T15:00:42.944Z,1396
2017-11-21T15:01:55.641Z,1912
2017-11-21T15:03:08.357Z,1260
2017-11-21T15:04:20.526Z,1204
2017-11-21T15:05:33.173Z,1168
2017-11-21T15:06:45.878Z,1088
2017-11-21T15:07:58.549Z,1020
2017-11-21T15:09:11.189Z,1028
2017-11-21T15:10:23.884Z,1108
2017-11-21T15:11:36.602Z,1872
2017-11-21T15:12:49.303Z,2064
2017-11-21T15:14:02.025Z,2956
2017-11-21T15:15:13.826Z,3008
2017-11-21T15:16:26.516Z,2952
2017-11-21T15:17:39.208Z,1704
2017-11-21T15:18:51.886Z,1656
2017-11-21T15:20:04.580Z,1220
2017-11-21T15:21:22.462Z,1028
2017-11-21T15:22:46.015Z,928
2017-11-21T15:23:58.749Z,912
2017-11-21T15:25:11.439Z,892
2017-11-21T15:26:24.155Z,896
2017-11-21T15:27:36.841Z,928
2017-11-21T15:28:49.561Z,892
2017-11-21T15:30:02.253Z,1064
2017-11-21T15:31:14.968Z,1172
2017-11-21T15:32:27.677Z,1252
2017-11-21T15:33:40.340Z,1196
2017-11-21T15:34:53.165Z,1140
2017-11-21T15:36:05.415Z,1116
2017-11-21T15:37:17.688Z,1100
2017-11-21T15:38:29.957Z,1088
2017-11-21T15:39:41.740Z,1284
2017-11-21T15:40:54.440Z,1252
2017-11-21T15:42:06.202Z,1848
2017-11-21T15:43:37.250Z,992
2017-11-21T15:44:49.946Z,916
2017-11-21T15:46:02.657Z,1040
2017-11-21T15:47:15.385Z,1076
2017-11-21T15:48:28.003Z,2276
2017-11-21T15:49:40.692Z,1940
2017-11-21T15:50:53.341Z,1028
2017-11-21T15:52:05.614Z,904
2017-11-21T15:53:18.374Z,724
2017-11-21T15:54:31.098Z,768
2017-11-21T15:55:43.978Z,824
2017-11-21T15:56:56.686Z,812
2017-11-21T15:58:09.374Z,880
2017-11-21T15:59:22.124Z,1072
2017-11-21T16:00:34.888Z,2172
2017-11-21T16:01:47.582Z,1892
2017-11-21T16:03:00.327Z,916
2017-11-21T16:04:16.420Z,752
2017-11-21T16:05:35.593Z,820
2017-11-21T16:06:47.832Z,848
2017-11-21T16:08:00.518Z,904
2017-11-21T16:09:12.288Z,948
2017-11-21T16:10:24.983Z,908
2017-11-21T16:11:37.775Z,844
2017-11-21T16:12:50.477Z,680
2017-11-21T16:14:03.177Z,572
2017-11-21T16:15:43.797Z,508
2017-11-21T16:16:56.461Z,512
2017-11-21T16:18:08.707Z,568
2017-11-21T16:19:21.439Z,628
2017-11-21T16:20:34.192Z,660
2017-11-21T16:21:46.951Z,696
2017-11-21T16:22:59.640Z,716
2017-11-21T16:24:11.461Z,1540
2017-11-21T16:25:23.689Z,1440
2017-11-21T16:26:41.769Z,1716
2017-11-21T16:27:57.111Z,1272
2017-11-21T16:29:09.817Z,1620
2017-11-21T16:30:22.491Z,792
2017-11-21T16:31:35.237Z,808
2017-11-21T16:32:47.903Z,820
2017-11-21T16:33:59.678Z,808
2017-11-21T16:35:11.872Z,876
2017-11-21T16:36:24.076Z,860
2017-11-21T16:37:36.723Z,756
2017-11-21T16:38:49.381Z,740
2017-11-21T16:40:02.017Z,744
2017-11-21T16:41:14.679Z,680
2017-11-21T16:42:27.311Z,604
2017-11-21T16:43:38.622Z,584
2017-11-21T16:44:51.264Z,576
2017-11-21T16:46:03.035Z,560
2017-11-21T16:47:15.217Z,540
2017-11-21T16:48:35.034Z,548
2017-11-21T16:49:47.668Z,572
2017-11-21T16:51:00.304Z,576
2017-11-21T16:52:12.066Z,592
2017-11-21T16:53:24.713Z,628
2017-11-21T16:54:36.902Z,664
2017-11-21T16:55:49.552Z,672
2017-11-21T16:57:01.767Z,612
2017-11-21T16:58:13.990Z,528
2017-11-21T16:59:26.215Z,500
2017-11-21T17:00:38.864Z,524
2017-11-21T17:01:52.003Z,524
2017-11-21T17:03:04.178Z,524
2017-11-21T17:04:16.802Z,900
2017-11-21T17:05:29.444Z,1292
2017-11-21T17:06:42.189Z,1380
2017-11-21T17:07:54.849Z,1484
2017-11-21T17:09:43.381Z,860
2017-11-21T17:10:56.868Z,1524
2017-11-21T17:12:08.627Z,1064
2017-11-21T17:13:20.852Z,1476
2017-11-21T17:14:33.507Z,1592
2017-11-21T17:15:46.158Z,1672
2017-11-21T17:16:58.926Z,1632
2017-11-21T17:18:11.125Z,952
2017-11-21T17:19:22.882Z,884
2017-11-21T17:20:41.536Z,852
2017-11-21T17:21:54.197Z,800